Time;durP1;ratioP1;P1;durP2;ratioP2;P2;SDS_P1;SDS_P2;PMS_P1;PMS_P2;Temp;Humidity;BMP_temperature;BMP_pressure;BME280_temperature;BME280_humidity;BME280_pressure;Samples;Min_cycle;Max_cycle;Signal;HPM_P1;HPM_P2
2023/08/10 00:02:16;;;;;;;2.88;1.80;;;;;;;17.63;58.28;102026.09;5053757;28;20049;-60
2023/08/10 00:04:44;;;;;;;3.53;1.90;;;;;;;17.63;58.39;102026.91;5062096;28;20045;-60
2023/08/10 00:07:12;;;;;;;3.00;1.80;;;;;;;17.63;58.32;102036.94;5062229;28;20053;-60
2023/08/10 00:09:40;;;;;;;3.75;1.83;;;;;;;17.60;58.29;102032.00;5044354;28;20236;-61
2023/08/10 00:12:08;;;;;;;3.28;1.75;;;;;;;17.61;58.47;102037.19;5046644;28;20053;-61
2023/08/10 00:14:36;;;;;;;5.65;2.20;;;;;;;17.60;58.36;102034.72;5061703;28;20410;-61
2023/08/10 00:17:04;;;;;;;5.53;2.25;;;;;;;17.60;58.59;102038.25;5061524;28;20053;-61
2023/08/10 00:19:34;;;;;;;3.85;2.00;;;;;;;17.59;58.35;102036.59;5042965;28;20059;-61
2023/08/10 00:22:01;;;;;;;9.10;2.35;;;;;;;17.57;58.63;102033.31;5041730;28;20049;-60
2023/08/10 00:24:30;;;;;;;4.05;2.00;;;;;;;17.56;58.66;102043.34;5049200;28;20116;-60
2023/08/10 00:26:57;;;;;;;4.03;1.70;;;;;;;17.53;58.66;102029.41;5062415;28;20054;-61
2023/08/10 00:29:25;;;;;;;3.97;1.75;;;;;;;17.54;58.80;102037.31;5138978;28;20043;-60
2023/08/10 00:31:53;;;;;;;5.32;2.17;;;;;;;17.54;58.82;102042.75;5061544;28;20049;-61
2023/08/10 00:34:21;;;;;;;2.88;1.58;;;;;;;17.53;58.99;102041.09;5060846;28;20052;-61
2023/08/10 00:36:50;;;;;;;3.92;1.63;;;;;;;17.53;58.84;102041.09;5067435;27;20047;-60
2023/08/10 00:39:18;;;;;;;5.25;1.88;;;;;;;17.51;58.96;102037.81;5144917;27;20039;-61
2023/08/10 00:41:46;;;;;;;4.13;1.90;;;;;;;17.51;58.96;102028.81;5027154;28;20058;-61
2023/08/10 00:44:16;;;;;;;4.72;1.90;;;;;;;17.51;59.03;102031.53;5044955;28;20049;-60
2023/08/10 00:46:44;;;;;;;3.70;1.70;;;;;;;17.50;59.03;102033.44;5044537;28;20052;-61
2023/08/10 00:49:12;;;;;;;4.45;1.52;;;;;;;17.49;59.01;102037.22;5055508;28;20072;-61
2023/08/10 00:51:40;;;;;;;3.70;2.00;;;;;;;17.48;59.04;102035.56;5044950;28;20059;-60
2023/08/10 00:54:09;;;;;;;3.70;1.83;;;;;;;17.48;59.07;102032.00;5044619;28;20289;-61
2023/08/10 00:56:37;;;;;;;4.28;2.10;;;;;;;17.49;59.06;102028.22;5044745;28;20121;-60
2023/08/10 00:59:05;;;;;;;4.63;2.08;;;;;;;17.47;59.10;102033.09;5044988;28;20074;-61
2023/08/10 01:01:33;;;;;;;3.20;1.52;;;;;;;17.47;59.19;102033.09;5044600;28;20053;-61
2023/08/10 01:04:01;;;;;;;4.38;1.77;;;;;;;17.46;59.36;102037.69;5061589;28;20421;-61
2023/08/10 01:06:39;;;;;;;3.42;1.77;;;;;;;17.46;59.29;102037.69;5064785;28;20049;-60
2023/08/10 01:09:19;;;;;;;3.60;1.80;;;;;;;17.45;59.25;102029.78;5064634;28;20049;-61
2023/08/10 01:11:56;;;;;;;5.47;2.08;;;;;;;17.44;59.38;102028.94;5049623;28;20098;-61
2023/08/10 01:14:31;;;;;;;4.43;2.00;;;;;;;17.44;59.43;102023.50;5044337;28;20060;-61
2023/08/10 01:17:02;;;;;;;4.07;2.38;;;;;;;17.44;59.59;102023.50;5044373;28;20071;-61
2023/08/10 01:19:35;;;;;;;5.28;2.05;;;;;;;17.44;59.44;102028.13;5044540;28;20054;-61
2023/08/10 01:22:11;;;;;;;4.05;1.80;;;;;;;17.43;59.62;102034.63;5044433;28;20054;-60
2023/08/10 01:24:43;;;;;;;2.85;2.00;;;;;;;17.41;59.66;102034.84;5045788;28;20053;-60
2023/08/10 01:27:14;;;;;;;4.30;1.88;;;;;;;17.41;59.65;102044.91;5068063;27;20047;-60
2023/08/10 01:29:42;;;;;;;3.50;2.15;;;;;;;17.39;59.80;102037.00;5148850;27;20063;-60
2023/08/10 01:32:14;;;;;;;2.72;2.05;;;;;;;17.39;59.68;102039.72;5076061;27;20045;-61
2023/08/10 01:34:42;;;;;;;4.80;2.10;;;;;;;17.39;59.81;102038.88;5060594;28;20041;-61
2023/08/10 01:37:10;;;;;;;3.42;1.92;;;;;;;17.39;59.92;102036.16;5084648;27;20485;-61
2023/08/10 01:39:37;;;;;;;3.33;2.05;;;;;;;17.37;59.94;102032.84;5069261;27;20050;-60
2023/08/10 01:42:05;;;;;;;4.60;1.73;;;;;;;17.37;60.04;102036.41;5044042;28;20050;-61
2023/08/10 01:44:35;;;;;;;4.72;2.05;;;;;;;17.37;59.89;102036.41;5043930;28;20056;-60
2023/08/10 01:47:08;;;;;;;4.18;2.03;;;;;;;17.36;60.16;102037.47;5043555;28;20054;-61
2023/08/10 01:49:38;;;;;;;6.35;2.63;;;;;;;17.35;60.11;102035.81;5043843;28;20049;-61
2023/08/10 01:52:09;;;;;;;6.15;2.28;;;;;;;17.32;59.88;102036.31;5050977;28;20049;-60
2023/08/10 01:54:38;;;;;;;2.95;1.80;;;;;;;17.35;60.27;102037.69;5048751;28;20045;-60
2023/08/10 01:57:06;;;;;;;6.18;2.53;;;;;;;17.34;60.27;102042.31;5062279;28;20176;-61
2023/08/10 01:59:36;;;;;;;7.03;2.05;;;;;;;17.33;60.40;102043.41;5043883;28;20072;-60
2023/08/10 02:02:03;;;;;;;3.65;1.77;;;;;;;17.33;60.31;102035.25;5043447;28;20102;-61
2023/08/10 02:04:32;;;;;;;4.13;2.30;;;;;;;17.34;60.25;102044.19;5023843;28;20053;-60
2023/08/10 02:06:59;;;;;;;7.10;2.15;;;;;;;17.32;60.35;102047.19;5024022;28;20087;-60
2023/08/10 02:09:27;;;;;;;3.78;1.63;;;;;;;17.32;60.30;102046.38;5024016;28;20052;-60
2023/08/10 02:11:55;;;;;;;4.38;2.42;;;;;;;17.32;60.25;102049.09;5032026;28;20482;-60
2023/08/10 02:14:23;;;;;;;3.95;2.10;;;;;;;17.30;60.27;102049.31;5063257;28;20061;-60
2023/08/10 02:16:52;;;;;;;4.28;2.00;;;;;;;17.30;60.49;102053.94;5063272;28;20045;-60
2023/08/10 02:19:20;;;;;;;5.03;2.25;;;;;;;17.29;60.29;102046.84;5063569;28;20113;-60
2023/08/10 02:21:47;;;;;;;4.60;1.95;;;;;;;17.28;60.51;102047.91;5043059;28;20049;-61
2023/08/10 02:24:15;;;;;;;5.65;2.25;;;;;;;17.27;60.44;102048.97;5043830;27;20049;-61
2023/08/10 02:26:43;;;;;;;5.28;2.15;;;;;;;17.25;60.50;102043.75;5046563;28;20049;-61
2023/08/10 02:29:11;;;;;;;3.65;1.80;;;;;;;17.23;60.53;102049.44;5063346;28;20053;-61
2023/08/10 02:31:38;;;;;;;4.25;1.77;;;;;;;17.22;60.60;102050.50;5062868;28;20451;-60
2023/08/10 02:34:08;;;;;;;3.80;1.67;;;;;;;17.22;60.46;102047.78;5117422;27;20047;-61
2023/08/10 02:36:35;;;;;;;4.82;2.17;;;;;;;17.21;60.78;102048.03;5058369;27;20065;-61
2023/08/10 02:39:05;;;;;;;3.60;2.35;;;;;;;17.21;60.68;102058.88;5095662;27;20106;-61
2023/08/10 02:41:33;;;;;;;4.15;2.08;;;;;;;17.20;60.57;102054.53;5063354;28;20045;-60
2023/08/10 02:44:01;;;;;;;4.45;2.33;;;;;;;17.18;60.68;102056.66;5063072;28;20078;-61
2023/08/10 02:46:29;;;;;;;6.22;1.65;;;;;;;17.17;60.87;102053.09;5062824;28;20485;-60
2023/08/10 02:48:57;;;;;;;3.92;1.98;;;;;;;17.16;60.81;102059.59;5061008;28;20060;-61
2023/08/10 02:51:26;;;;;;;2.70;1.80;;;;;;;17.15;60.67;102054.41;5043049;28;20046;-60
2023/08/10 02:53:53;;;;;;;5.07;2.55;;;;;;;17.14;60.83;102053.56;5042713;28;20049;-61
2023/08/10 02:56:21;;;;;;;5.43;2.03;;;;;;;17.14;60.93;102055.47;5059547;28;20068;-60
2023/08/10 02:58:49;;;;;;;7.18;2.22;;;;;;;17.13;60.81;102061.97;5046533;28;20056;-61
2023/08/10 03:01:17;;;;;;;3.80;2.40;;;;;;;17.12;60.99;102066.56;5042697;28;20045;-61
2023/08/10 03:03:45;;;;;;;4.63;2.28;;;;;;;17.13;60.99;102062.78;5042755;28;20077;-61
2023/08/10 03:06:13;;;;;;;4.43;2.20;;;;;;;17.12;60.69;102063.84;5060146;28;20543;-61
2023/08/10 03:08:42;;;;;;;5.78;2.13;;;;;;;17.10;60.87;102062.44;5062884;28;20078;-61
2023/08/10 03:11:10;;;;;;;4.35;1.92;;;;;;;17.06;60.96;102053.09;5062774;28;20045;-61
2023/08/10 03:13:38;;;;;;;3.47;1.73;;;;;;;17.08;61.02;102067.28;5060961;28;20444;-60
2023/08/10 03:16:06;;;;;;;5.75;2.03;;;;;;;17.07;60.90;102061.00;5062322;28;20053;-60
2023/08/10 03:18:33;;;;;;;3.63;1.92;;;;;;;17.05;60.89;102060.41;5056072;28;20053;-61
2023/08/10 03:21:01;;;;;;;5.03;2.08;;;;;;;17.05;61.05;102063.13;5042466;28;20053;-60
2023/08/10 03:23:29;;;;;;;5.35;2.25;;;;;;;17.06;61.27;102061.25;5042994;28;20049;-60
2023/08/10 03:25:58;;;;;;;4.70;2.22;;;;;;;17.04;61.22;102066.09;5042618;28;20045;-60
2023/08/10 03:28:26;;;;;;;4.50;2.08;;;;;;;17.05;61.08;102067.75;5059557;28;20049;-61
2023/08/10 03:30:54;;;;;;;3.30;2.00;;;;;;;17.03;61.07;102059.81;5050704;28;20054;-61
2023/08/10 03:33:22;;;;;;;4.00;2.05;;;;;;;17.03;61.15;102057.09;5050003;28;20045;-60
2023/08/10 03:35:50;;;;;;;4.40;2.17;;;;;;;17.02;60.91;102054.63;5046074;28;20045;-60
2023/08/10 03:38:18;;;;;;;4.45;2.30;;;;;;;17.01;61.07;102055.69;5134527;28;20072;-60
2023/08/10 03:40:46;;;;;;;7.15;2.53;;;;;;;17.00;61.11;102057.59;5146871;28;20048;-60
2023/08/10 03:43:15;;;;;;;7.38;2.00;;;;;;;16.99;61.19;102064.06;5081661;28;20056;-60
2023/08/10 03:45:42;;;;;;;4.93;1.92;;;;;;;16.98;60.97;102057.00;5062028;28;20053;-60
2023/08/10 03:48:10;;;;;;;5.47;2.30;;;;;;;16.97;60.95;102059.94;5062134;28;20475;-61
2023/08/10 03:50:38;;;;;;;4.32;2.30;;;;;;;16.96;61.22;102055.56;5047542;28;20049;-60
2023/08/10 03:53:07;;;;;;;5.10;1.77;;;;;;;16.93;61.06;102059.59;5051624;28;20045;-61
2023/08/10 03:55:35;;;;;;;6.47;2.47;;;;;;;16.92;61.37;102063.34;5047098;28;20060;-61
2023/08/10 03:58:02;;;;;;;4.47;2.22;;;;;;;16.92;61.37;102069.63;5042412;28;20045;-60
2023/08/10 04:00:31;;;;;;;8.65;2.70;;;;;;;16.92;61.28;102068.78;5041794;28;20114;-60
2023/08/10 04:02:59;;;;;;;3.70;2.33;;;;;;;16.91;61.45;102075.28;5046726;28;20045;-61
2023/08/10 04:05:28;;;;;;;5.40;2.20;;;;;;;16.89;61.17;102078.22;5061956;28;20140;-61
2023/08/10 04:07:55;;;;;;;5.30;2.35;;;;;;;16.88;61.11;102071.16;5062008;28;20053;-61
2023/08/10 04:10:23;;;;;;;4.20;2.40;;;;;;;16.88;61.29;102073.03;5053073;28;20053;-59
2023/08/10 04:12:51;;;;;;;6.13;2.38;;;;;;;16.85;61.29;102070.78;5044211;28;20425;-60
2023/08/10 04:15:19;;;;;;;3.92;1.90;;;;;;;16.85;61.35;102079.75;5044075;28;20057;-61
2023/08/10 04:17:48;;;;;;;3.17;2.17;;;;;;;16.84;61.27;102077.28;5045543;28;20053;-61
2023/08/10 04:20:16;;;;;;;4.03;2.50;;;;;;;16.83;61.47;102078.34;5045256;28;20060;-61
2023/08/10 04:22:44;;;;;;;4.18;2.20;;;;;;;16.82;61.43;102077.50;5055326;27;20041;-61
2023/08/10 04:25:11;;;;;;;5.20;2.70;;;;;;;16.81;61.57;102078.56;5044831;28;20491;-60
2023/08/10 04:27:40;;;;;;;5.20;2.10;;;;;;;16.81;61.64;102081.28;5053741;28;20049;-60
2023/08/10 04:30:09;;;;;;;8.25;1.90;;;;;;;16.80;61.72;102076.91;5065132;28;20256;-60
2023/08/10 04:32:37;;;;;;;4.63;2.33;;;;;;;16.80;61.59;102082.34;5061711;28;20045;-60
2023/08/10 04:35:07;;;;;;;5.03;2.50;;;;;;;16.80;61.46;102085.06;5058211;28;20064;-60
2023/08/10 04:37:34;;;;;;;3.53;2.20;;;;;;;16.79;61.56;102091.56;5102989;27;20043;-60
2023/08/10 04:40:09;;;;;;;7.45;2.22;;;;;;;16.79;61.73;102090.72;5149904;27;20051;-60
2023/08/10 04:42:39;;;;;;;5.43;2.17;;;;;;;16.77;61.73;102090.97;5149691;27;20506;-60
2023/08/10 04:45:10;;;;;;;5.63;2.70;;;;;;;16.76;61.81;102094.72;5124303;27;20037;-60
2023/08/10 04:47:38;;;;;;;4.07;2.15;;;;;;;16.75;61.75;102101.22;5044740;28;20050;-61
2023/08/10 04:50:08;;;;;;;3.70;2.47;;;;;;;16.75;61.86;102090.38;5044792;28;20053;-61
2023/08/10 04:52:36;;;;;;;6.70;2.65;;;;;;;16.74;61.72;102096.03;5044656;28;20392;-61
2023/08/10 04:55:05;;;;;;;6.95;2.63;;;;;;;16.73;61.96;102105.22;5032336;28;20056;-61
2023/08/10 04:57:33;;;;;;;4.53;2.10;;;;;;;16.72;61.83;102101.69;5044827;28;20498;-61
2023/08/10 05:00:02;;;;;;;5.15;2.10;;;;;;;16.71;61.98;102094.59;5044702;28;20075;-60
2023/08/10 05:02:30;;;;;;;3.65;2.35;;;;;;;16.71;61.84;102093.78;5044543;28;20053;-60
2023/08/10 05:04:58;;;;;;;5.07;2.30;;;;;;;16.69;61.92;102094.00;5044626;28;20054;-60
2023/08/10 05:07:28;;;;;;;5.50;2.42;;;;;;;16.68;61.98;102100.50;5044925;28;20106;-60
2023/08/10 05:09:56;;;;;;;4.05;2.15;;;;;;;16.67;62.00;102093.41;5044742;28;20087;-60
2023/08/10 05:12:24;;;;;;;3.15;2.30;;;;;;;16.68;61.99;102092.34;5044636;28;20079;-60
2023/08/10 05:14:51;;;;;;;3.33;2.08;;;;;;;16.67;62.12;102101.56;5056927;28;20056;-61
2023/08/10 05:17:19;;;;;;;4.85;2.78;;;;;;;16.66;62.21;102104.50;5057272;28;20075;-61
2023/08/10 05:19:47;;;;;;;5.72;2.13;;;;;;;16.65;62.16;102106.38;5044595;28;20049;-60
2023/08/10 05:22:15;;;;;;;3.42;1.80;;;;;;;16.66;62.39;102107.22;5043797;28;20510;-60
2023/08/10 05:24:44;;;;;;;4.95;2.67;;;;;;;16.66;62.22;102109.94;5044457;27;20041;-60
2023/08/10 05:27:12;;;;;;;3.67;2.00;;;;;;;16.66;62.18;102116.19;5069279;27;20064;-60
2023/08/10 05:29:39;;;;;;;8.48;2.53;;;;;;;16.65;62.04;102111.00;5148982;27;20047;-60
2023/08/10 05:32:07;;;;;;;5.05;2.22;;;;;;;16.65;62.02;102113.69;5148467;27;20065;-60
2023/08/10 05:34:35;;;;;;;4.70;2.13;;;;;;;16.64;62.18;102109.28;5071260;27;20062;-61
2023/08/10 05:37:03;;;;;;;5.40;2.30;;;;;;;16.63;62.28;102108.47;5079779;27;20088;-61
2023/08/10 05:39:31;;;;;;;4.15;2.30;;;;;;;16.63;62.05;102113.91;5148774;27;20055;-60
2023/08/10 05:42:00;;;;;;;3.10;2.13;;;;;;;16.63;62.31;102103.03;5063573;27;20045;-61
2023/08/10 05:44:28;;;;;;;5.05;2.53;;;;;;;16.63;62.29;102113.06;5056606;28;20057;-60
2023/08/10 05:46:55;;;;;;;3.10;2.08;;;;;;;16.64;62.01;102109.28;5043748;28;20430;-62
2023/08/10 05:49:23;;;;;;;4.32;2.35;;;;;;;16.63;62.35;102107.63;5044027;28;20075;-60
2023/08/10 05:51:51;;;;;;;8.27;2.97;;;;;;;16.62;62.34;102106.00;5043910;28;20096;-60
2023/08/10 05:54:19;;;;;;;5.32;2.83;;;;;;;16.62;62.41;102100.56;5030392;28;20076;-60
2023/08/10 05:56:47;;;;;;;2.90;2.10;;;;;;;16.62;62.55;102098.66;5043901;28;20049;-60
2023/08/10 05:59:16;;;;;;;3.22;2.15;;;;;;;16.63;62.49;102102.22;5043760;28;20046;-60
2023/08/10 06:01:45;;;;;;;2.70;1.90;;;;;;;16.63;62.40;102099.50;5056154;28;20044;-60
2023/08/10 06:04:14;;;;;;;5.60;2.30;;;;;;;16.63;62.58;102108.47;5062351;28;20045;-60
2023/08/10 06:06:42;;;;;;;4.07;2.40;;;;;;;16.63;62.49;102105.75;5063857;28;20044;-60
2023/08/10 06:09:11;;;;;;;3.05;2.03;;;;;;;16.55;62.32;102087.91;5063810;28;20057;-60
2023/08/10 06:11:39;;;;;;;4.82;2.08;;;;;;;16.63;62.60;102108.47;5062227;28;20045;-60
2023/08/10 06:14:28;;;;;;;4.43;2.20;;;;;;;16.64;62.47;102107.41;5063059;28;20517;-60
2023/08/10 06:16:57;;;;;;;5.90;2.38;;;;;;;16.66;62.54;102101.78;5063004;28;20063;-60
2023/08/10 06:19:25;;;;;;;3.42;2.08;;;;;;;16.67;62.40;102106.16;5060480;28;20045;-60
2023/08/10 06:21:52;;;;;;;5.00;2.22;;;;;;;16.69;62.39;102106.75;5056419;28;20049;-60
2023/08/10 06:24:20;;;;;;;3.97;2.40;;;;;;;16.70;62.28;102111.13;5048729;28;20046;-60
2023/08/10 06:26:48;;;;;;;5.18;2.25;;;;;;;16.71;62.39;102105.47;5049144;28;20041;-60
2023/08/10 06:29:16;;;;;;;4.10;2.13;;;;;;;16.75;62.37;102108.53;5063344;28;20597;-60
2023/08/10 06:31:46;;;;;;;4.68;2.33;;;;;;;16.77;62.49;102103.69;5062927;28;20415;-60
2023/08/10 06:34:14;;;;;;;3.95;1.90;;;;;;;16.80;62.56;102097.81;5103797;27;20040;-60
2023/08/10 06:36:42;;;;;;;3.70;1.95;;;;;;;16.82;62.47;102096.50;5047647;27;20043;-60
2023/08/10 06:39:10;;;;;;;3.28;2.25;;;;;;;16.85;62.67;102089.78;5147403;27;20058;-60
2023/08/10 06:41:38;;;;;;;3.70;1.75;;;;;;;16.87;62.73;102102.06;5147373;27;20488;-60
2023/08/10 06:44:06;;;;;;;3.70;1.83;;;;;;;16.90;62.72;102089.91;5113792;27;20037;-60
2023/08/10 06:46:34;;;;;;;4.00;1.75;;;;;;;16.92;62.79;102101.38;5062446;28;20048;-60
2023/08/10 06:49:03;;;;;;;4.75;2.50;;;;;;;16.94;62.94;102099.25;5061372;28;20078;-61
2023/08/10 06:51:32;;;;;;;3.28;1.80;;;;;;;16.97;62.86;102089.81;5062111;28;20053;-60
2023/08/10 06:54:00;;;;;;;4.63;1.90;;;;;;;16.99;62.94;102091.22;5051044;28;20042;-61
2023/08/10 06:56:28;;;;;;;3.05;1.70;;;;;;;17.03;63.06;102092.41;5042939;28;20053;-61
2023/08/10 06:58:57;;;;;;;3.78;1.55;;;;;;;17.06;62.86;102094.66;5042755;28;20637;-60
2023/08/10 07:01:27;;;;;;;2.78;1.80;;;;;;;17.09;62.85;102086.06;5042687;28;20057;-60
2023/08/10 07:03:55;;;;;;;4.30;1.42;;;;;;;17.12;62.99;102088.28;5051978;28;20485;-60
2023/08/10 07:06:24;;;;;;;2.97;1.83;;;;;;;17.17;62.97;102096.56;5062501;28;20110;-61
2023/08/10 07:08:53;;;;;;;4.13;2.20;;;;;;;17.20;62.93;102092.56;5062770;28;20049;-60
2023/08/10 07:11:21;;;;;;;4.30;1.67;;;;;;;17.23;63.15;102094.81;5059977;28;20076;-61
2023/08/10 07:13:49;;;;;;;3.20;1.85;;;;;;;17.26;63.01;102094.31;5042410;28;20045;-61
2023/08/10 07:16:18;;;;;;;2.70;1.70;;;;;;;17.29;62.95;102090.31;5042070;28;20418;-60
2023/08/10 07:18:46;;;;;;;3.65;1.90;;;;;;;17.32;63.02;102093.38;5056453;28;20053;-61
2023/08/10 07:21:14;;;;;;;2.17;1.33;;;;;;;17.34;62.89;102090.41;5042619;28;20091;-59
2023/08/10 07:23:43;;;;;;;2.95;1.80;;;;;;;17.36;62.81;102094.53;5042722;28;20046;-60
2023/08/10 07:26:11;;;;;;;4.32;1.98;;;;;;;17.37;62.72;102096.19;5042284;28;20049;-59
2023/08/10 07:28:38;;;;;;;4.00;1.90;;;;;;;17.40;62.93;102092.16;5103528;28;20151;-60
2023/08/10 07:31:06;;;;;;;3.42;1.52;;;;;;;17.41;62.78;102089.22;5062151;28;20045;-60
2023/08/10 07:33:34;;;;;;;3.47;1.40;;;;;;;17.43;62.71;102089.81;5062171;28;20053;-61
2023/08/10 07:36:02;;;;;;;4.13;1.60;;;;;;;17.45;62.71;102086.84;5047217;28;20176;-60
2023/08/10 07:38:30;;;;;;;3.83;1.80;;;;;;;17.47;62.73;102079.28;5139779;28;20051;-60
2023/08/10 07:40:59;;;;;;;2.35;1.40;;;;;;;17.47;62.65;102085.56;5146707;28;20130;-60
2023/08/10 07:43:27;;;;;;;2.47;1.23;;;;;;;17.48;62.68;102080.94;5071816;27;20042;-60
2023/08/10 07:45:54;;;;;;;2.22;1.30;;;;;;;17.48;62.77;102089.91;5043480;28;20037;-61
2023/08/10 07:48:22;;;;;;;3.75;1.70;;;;;;;17.48;62.68;102100.78;5045647;28;20486;-62
2023/08/10 07:50:50;;;;;;;2.05;1.33;;;;;;;17.50;62.64;102093.22;5045386;28;20102;-60
2023/08/10 07:53:18;;;;;;;2.90;1.27;;;;;;;17.50;62.66;102087.78;5053041;28;20045;-61
2023/08/10 07:55:45;;;;;;;3.78;1.52;;;;;;;17.52;62.70;102090.28;5045402;28;20071;-61
2023/08/10 07:58:15;;;;;;;2.13;1.38;;;;;;;17.52;62.43;102093.81;5045951;28;20049;-61
2023/08/10 08:00:43;;;;;;;3.33;1.50;;;;;;;17.53;62.49;102094.66;5045449;28;20098;-60
2023/08/10 08:03:12;;;;;;;2.90;1.42;;;;;;;17.55;62.50;102092.53;5045666;28;20068;-60
2023/08/10 08:05:41;;;;;;;3.35;1.33;;;;;;;17.56;62.47;102086.84;5061486;28;20049;-61
2023/08/10 08:08:09;;;;;;;3.83;1.48;;;;;;;17.57;62.48;102082.22;5065606;28;20074;-61
2023/08/10 08:10:37;;;;;;;1.80;1.35;;;;;;;17.60;62.29;102091.81;5065411;28;20347;-61
2023/08/10 08:13:06;;;;;;;2.70;1.30;;;;;;;17.61;62.22;102090.75;5051986;28;20081;-61
2023/08/10 08:15:35;;;;;;;3.58;1.48;;;;;;;17.63;62.29;102085.88;5044770;28;20058;-60
2023/08/10 08:18:42;;;;;;;2.22;1.20;;;;;;;17.64;62.22;102082.94;5044945;28;20053;-61
2023/08/10 08:21:10;;;;;;;1.42;1.20;;;;;;;17.66;62.43;102085.44;5025383;28;20415;-60
2023/08/10 08:23:38;;;;;;;2.28;1.10;;;;;;;17.67;62.28;102082.50;5033977;27;20074;-60
2023/08/10 08:26:06;;;;;;;1.35;1.25;;;;;;;17.68;62.25;102086.03;5044907;28;20067;-61
2023/08/10 08:28:34;;;;;;;2.15;1.15;;;;;;;17.70;62.27;102089.34;5071336;27;20105;-61
2023/08/10 08:31:04;;;;;;;2.00;1.27;;;;;;;17.73;62.10;102088.88;5064769;28;20053;-60
2023/08/10 08:33:32;;;;;;;3.03;1.27;;;;;;;17.75;62.22;102086.72;5063356;28;20052;-61
2023/08/10 08:36:00;;;;;;;2.72;1.25;;;;;;;17.78;62.23;102089.78;5050539;28;20481;-61
2023/08/10 08:38:29;;;;;;;1.75;1.17;;;;;;;17.80;62.38;102086.84;5045095;28;20049;-61
2023/08/10 08:40:57;;;;;;;2.05;1.23;;;;;;;17.83;61.89;102083.63;5044908;28;20056;-61
2023/08/10 08:43:25;;;;;;;2.03;0.98;;;;;;;17.86;62.12;102094.03;5058547;28;20045;-61
2023/08/10 08:45:53;;;;;;;2.58;1.40;;;;;;;17.86;61.93;102088.59;5064249;28;20049;-60
2023/08/10 08:48:22;;;;;;;3.08;1.15;;;;;;;17.89;61.69;102093.56;5064741;28;20056;-61
2023/08/10 08:50:50;;;;;;;4.15;1.38;;;;;;;17.91;61.96;102083.25;5048664;28;20064;-61
2023/08/10 08:53:18;;;;;;;2.83;1.55;;;;;;;17.93;61.76;102088.47;5053784;28;20074;-61
2023/08/10 08:55:47;;;;;;;1.98;1.00;;;;;;;17.95;61.57;102099.94;5049752;28;20046;-62
2023/08/10 08:58:16;;;;;;;1.50;1.25;;;;;;;17.96;61.48;102098.88;5044034;28;20045;-61
2023/08/10 09:00:48;;;;;;;2.33;1.20;;;;;;;17.97;61.33;102093.19;5044388;28;20081;-59
2023/08/10 09:03:17;;;;;;;2.05;1.10;;;;;;;17.99;61.49;102093.78;5044869;28;20081;-60
2023/08/10 09:05:47;;;;;;;1.77;1.02;;;;;;;18.02;61.54;102081.59;5056513;28;20074;-60
2023/08/10 09:08:16;;;;;;;2.78;1.20;;;;;;;18.05;61.44;102071.03;5060795;28;20056;-60
2023/08/10 09:10:45;;;;;;;3.38;1.40;;;;;;;18.06;61.41;102067.25;5043963;28;20098;-61
2023/08/10 09:13:16;;;;;;;1.52;1.02;;;;;;;18.09;61.41;102072.22;5044373;28;20429;-61
2023/08/10 09:15:44;;;;;;;2.97;1.48;;;;;;;18.16;61.77;102066.63;5050774;28;20452;-60
2023/08/10 09:18:12;;;;;;;3.97;1.17;;;;;;;18.20;61.81;102068.63;5064452;28;20069;-61
2023/08/10 09:20:40;;;;;;;1.33;1.05;;;;;;;18.24;61.94;102065.41;5063848;28;20513;-61
2023/08/10 09:23:10;;;;;;;2.05;0.90;;;;;;;18.28;62.00;102067.41;5060636;27;20045;-61
2023/08/10 09:25:40;;;;;;;1.90;1.30;;;;;;;18.33;62.12;102072.13;5043975;28;20113;-61
2023/08/10 09:28:12;;;;;;;3.17;1.45;;;;;;;18.36;62.13;102075.19;5087107;27;20048;-61
2023/08/10 09:30:41;;;;;;;3.13;1.30;;;;;;;18.40;62.03;102075.53;5064004;28;20070;-61
2023/08/10 09:33:09;;;;;;;4.30;1.17;;;;;;;18.43;61.91;102075.84;5064174;28;20048;-61
2023/08/10 09:35:38;;;;;;;1.85;1.00;;;;;;;18.47;62.20;102068.84;5052580;28;20049;-61
2023/08/10 09:38:06;;;;;;;5.85;1.52;;;;;;;18.51;62.02;102075.47;5128470;27;20043;-61
2023/08/10 09:40:35;;;;;;;2.65;1.27;;;;;;;18.56;62.03;102069.28;5148439;27;20050;-60
2023/08/10 09:43:09;;;;;;;3.22;1.42;;;;;;;18.62;62.11;102068.34;5129062;27;20048;-61
2023/08/10 09:45:39;;;;;;;2.28;1.35;;;;;;;18.65;62.24;102067.84;5063670;28;20053;-60
2023/08/10 09:48:11;;;;;;;2.08;0.90;;;;;;;18.70;61.91;102076.09;5063472;28;20045;-60
2023/08/10 09:50:39;;;;;;;3.20;1.17;;;;;;;18.76;61.91;102069.66;5049355;28;20052;-60
2023/08/10 09:53:07;;;;;;;1.92;1.20;;;;;;;18.79;61.78;102066.44;5043509;28;20452;-60
2023/08/10 09:55:36;;;;;;;2.63;1.00;;;;;;;18.82;62.17;102068.69;5048975;28;20041;-60
2023/08/10 09:58:04;;;;;;;2.88;1.35;;;;;;;18.87;62.19;102061.66;5044134;28;20057;-60
2023/08/10 10:00:32;;;;;;;5.32;1.05;;;;;;;18.87;62.14;102061.66;5043747;28;20054;-60
2023/08/10 10:03:00;;;;;;;3.47;1.40;;;;;;;18.87;62.17;102070.66;5061180;28;20049;-61
2023/08/10 10:05:28;;;;;;;1.92;1.40;;;;;;;18.91;62.28;102073.72;5052010;28;20077;-61
2023/08/10 10:08:04;;;;;;;5.35;1.30;;;;;;;18.92;62.42;102076.19;5043636;28;20041;-61
2023/08/10 10:10:35;;;;;;;2.50;1.20;;;;;;;18.93;62.39;102072.41;5048882;28;20060;-61
2023/08/10 10:13:06;;;;;;;1.77;1.35;;;;;;;18.95;62.28;102077.59;5064072;28;20199;-61
2023/08/10 10:15:36;;;;;;;3.15;1.20;;;;;;;18.98;62.29;102068.94;5063242;28;20070;-61
2023/08/10 10:18:05;;;;;;;2.97;1.23;;;;;;;19.01;62.53;102073.88;5060266;28;20057;-61
2023/08/10 10:20:35;;;;;;;4.32;1.30;;;;;;;19.05;62.52;102081.31;5043969;28;20062;-61
2023/08/10 10:23:03;;;;;;;3.70;1.15;;;;;;;19.08;62.48;102083.50;5044370;28;20042;-61
2023/08/10 10:25:31;;;;;;;2.45;1.15;;;;;;;19.12;62.43;102081.94;5043170;28;20554;-60
2023/08/10 10:27:59;;;;;;;2.33;1.33;;;;;;;19.15;62.43;102083.34;5058311;27;20049;-61
2023/08/10 10:30:29;;;;;;;3.38;1.50;;;;;;;19.19;62.35;102079.03;5063270;28;20053;-60
2023/08/10 10:32:57;;;;;;;2.92;1.40;;;;;;;19.26;61.89;102070.69;5063133;28;20055;-60
2023/08/10 10:35:32;;;;;;;3.45;1.45;;;;;;;19.30;62.14;102072.66;5053434;28;20130;-61
2023/08/10 10:38:00;;;;;;;2.38;1.20;;;;;;;19.31;62.07;102066.16;5074919;27;20048;-61
2023/08/10 10:40:28;;;;;;;2.25;1.58;;;;;;;19.34;62.32;102067.53;5063162;28;20057;-61
2023/08/10 10:43:06;;;;;;;3.45;1.45;;;;;;;19.36;61.96;102068.13;5051714;28;20057;-61
2023/08/10 10:45:37;;;;;;;1.77;1.27;;;;;;;19.39;62.14;102068.44;5042983;28;20059;-61
2023/08/10 10:48:06;;;;;;;2.33;1.50;;;;;;;19.45;62.16;102061.16;5042766;28;20069;-61
2023/08/10 10:50:34;;;;;;;3.17;1.23;;;;;;;19.50;62.17;102066.69;5046049;28;20073;-61
2023/08/10 10:53:04;;;;;;;2.72;1.33;;;;;;;19.58;61.86;102063.56;5043040;28;20421;-60
2023/08/10 10:55:40;;;;;;;4.82;1.45;;;;;;;19.61;61.96;102048.59;5048194;28;20052;-60
2023/08/10 10:58:09;;;;;;;4.22;1.67;;;;;;;19.63;62.01;102043.72;5043305;28;20046;-61
2023/08/10 11:00:39;;;;;;;3.60;1.30;;;;;;;19.68;62.24;102051.97;5042925;28;20046;-61
2023/08/10 11:03:09;;;;;;;2.35;1.33;;;;;;;19.75;62.36;102058.06;5042568;28;20073;-61
2023/08/10 11:05:38;;;;;;;2.42;1.30;;;;;;;19.81;62.15;102054.31;5042626;28;20122;-61
2023/08/10 11:08:08;;;;;;;3.45;1.30;;;;;;;19.88;62.15;102059.56;5042980;28;20060;-60
2023/08/10 11:10:37;;;;;;;2.45;1.50;;;;;;;19.91;61.83;102046.25;5057986;28;20056;-60
2023/08/10 11:13:06;;;;;;;2.65;1.50;;;;;;;19.92;61.76;102052.53;5058202;28;20045;-60
2023/08/10 11:15:36;;;;;;;1.92;1.35;;;;;;;19.91;61.71;102048.97;5042268;28;20559;-60
2023/08/10 11:18:11;;;;;;;3.00;1.55;;;;;;;19.89;62.23;102051.13;5053119;28;20429;-61
2023/08/10 11:20:44;;;;;;;2.45;1.55;;;;;;;19.87;62.14;102042.38;5061848;28;20049;-61
2023/08/10 11:23:13;;;;;;;1.90;1.20;;;;;;;19.84;61.58;102040.16;5048476;28;20091;-61
2023/08/10 11:25:49;;;;;;;2.22;1.40;;;;;;;19.83;60.98;102035.78;5042117;28;20050;-60
2023/08/10 11:28:18;;;;;;;;;;;;;;;19.85;61.21;102035.53;5114259;28;20072;-61
2023/08/10 11:30:46;;;;;;;3.13;1.40;;;;;;;19.83;60.41;102033.06;5136675;28;19926;-60
2023/08/10 11:33:15;;;;;;;2.67;1.75;;;;;;;19.84;61.07;102031.97;5057485;28;20087;-61